createdAt,value
2019-03-01T15:24:52.981Z,10.70
2019-03-01T16:05:48.901Z,10.10
2019-03-01T16:08:23.212Z,10.00
2019-03-01T16:10:51.449Z,10.00
2019-03-01T16:13:19.596Z,9.90
2019-03-01T16:15:47.729Z,9.80
2019-03-01T16:18:16.123Z,9.80
2019-03-01T16:20:44.103Z,9.80
2019-03-01T16:23:11.893Z,9.80
2019-03-01T16:25:39.805Z,9.80
2019-03-01T16:28:08.187Z,9.70
2019-03-01T16:30:36.001Z,9.70
2019-03-01T16:33:04.764Z,9.60
2019-03-01T16:35:32.523Z,9.60
2019-03-01T16:38:02.582Z,9.60
2019-03-01T16:40:30.610Z,9.60
2019-03-01T16:42:58.605Z,9.60
2019-03-01T16:45:26.699Z,9.60
2019-03-01T16:48:00.932Z,9.60
2019-03-01T16:50:32.463Z,9.60
2019-03-01T16:53:04.220Z,9.60
2019-03-01T16:55:30.446Z,9.60
2019-03-01T16:58:06.894Z,9.50
2019-03-01T17:00:29.345Z,9.40
2019-03-01T17:02:57.726Z,9.40
2019-03-01T17:05:25.592Z,9.40
2019-03-01T17:07:53.683Z,9.40
2019-03-01T17:10:21.788Z,9.40
2019-03-01T17:12:52.097Z,9.30
2019-03-01T17:15:20.148Z,9.30
2019-03-01T17:17:48.889Z,9.40
2019-03-01T17:20:19.897Z,9.30
2019-03-01T17:22:47.938Z,9.40
2019-03-01T17:25:16.190Z,9.30
2019-03-01T17:27:45.448Z,9.30
2019-03-01T17:30:17.664Z,9.30
2019-03-01T17:32:48.510Z,9.30
2019-03-01T17:35:16.399Z,9.40
2019-03-01T17:37:44.255Z,9.40
2019-03-01T17:40:20.082Z,9.40
2019-03-01T17:42:48.034Z,9.40
2019-03-01T17:45:20.976Z,9.40
2019-03-01T17:47:49.286Z,9.40
2019-03-01T17:50:18.343Z,9.40
2019-03-01T17:52:55.275Z,9.40
2019-03-01T17:55:26.258Z,9.40
2019-03-01T17:57:54.215Z,9.40
2019-03-01T18:00:27.909Z,9.40
2019-03-01T18:02:55.766Z,9.40
2019-03-01T18:05:23.489Z,9.40
2019-03-01T18:07:54.925Z,9.40
2019-03-01T18:10:23.462Z,9.40
2019-03-01T18:12:53.056Z,9.30
2019-03-01T18:15:23.412Z,9.30
2019-03-01T18:17:58.259Z,9.30
2019-03-01T18:20:29.741Z,9.30
2019-03-01T18:22:59.417Z,9.30
2019-03-01T18:25:27.970Z,9.20
2019-03-01T18:28:14.896Z,9.20
2019-03-01T18:30:44.786Z,9.20
2019-03-01T18:33:16.898Z,9.20
2019-03-01T18:35:44.318Z,9.10
2019-03-01T18:38:15.196Z,9.10
2019-03-01T18:43:19.619Z,9.10
2019-03-01T18:45:48.233Z,9.10
2019-03-01T18:48:16.071Z,9.10
2019-03-01T18:50:47.143Z,9.10
2019-03-01T18:53:14.977Z,9.10
2019-03-01T18:55:44.296Z,9.10
2019-03-01T18:58:13.948Z,9.10
2019-03-01T19:00:43.955Z,9.10
2019-03-01T19:03:11.849Z,9.10
2019-03-01T19:05:46.511Z,9.10
2019-03-01T19:08:17.023Z,9.10
2019-03-01T19:10:53.733Z,9.10
2019-03-01T19:13:14.657Z,9.10
2019-03-01T19:15:42.814Z,9.10
2019-03-01T19:18:13.507Z,9.10
2019-03-01T19:20:44.847Z,9.20
2019-03-01T19:23:12.675Z,9.20
2019-03-01T19:25:43.804Z,9.10
2019-03-01T19:28:11.890Z,9.20
2019-03-01T19:30:39.764Z,9.20
2019-03-01T19:33:07.465Z,9.20
2019-03-01T19:35:37.722Z,9.20
2019-03-01T19:38:12.717Z,9.20
2019-03-01T19:40:43.307Z,9.30
2019-03-01T19:43:25.988Z,9.30
2019-03-01T19:45:59.820Z,9.30
2019-03-01T19:48:28.306Z,9.20
2019-03-01T19:50:58.501Z,9.20
2019-03-01T19:53:27.076Z,9.20
2019-03-01T19:55:55.084Z,9.20
2019-03-01T19:58:23.492Z,9.20
2019-03-01T20:00:51.814Z,9.10
2019-03-01T20:03:19.721Z,9.10
2019-03-01T20:05:54.130Z,9.00
2019-03-01T20:08:22.174Z,9.00
2019-03-01T20:10:50.945Z,9.00
2019-03-01T20:13:20.462Z,9.00
2019-03-01T20:15:48.987Z,9.00
2019-03-01T20:18:17.696Z,9.00
2019-03-01T20:20:46.169Z,9.00
2019-03-01T20:23:23.414Z,9.00
2019-03-01T20:26:02.254Z,8.90
2019-03-01T20:28:33.359Z,8.90
2019-03-01T20:31:04.595Z,8.80
2019-03-01T20:33:31.629Z,8.80
2019-03-01T20:36:01.462Z,8.80
2019-03-01T20:38:29.892Z,8.70
2019-03-01T20:40:59.781Z,8.60
2019-03-01T20:43:28.955Z,8.50
2019-03-01T20:45:58.674Z,8.50
2019-03-01T20:48:28.916Z,8.40
2019-03-01T20:50:59.468Z,8.40
2019-03-01T20:53:27.502Z,8.40
2019-03-01T20:55:56.454Z,8.30
2019-03-01T20:58:25.327Z,8.30
2019-03-01T21:00:58.869Z,8.20
2019-03-01T21:03:30.772Z,8.20
2019-03-01T21:06:01.733Z,8.10
2019-03-01T21:08:29.877Z,8.10
2019-03-01T21:10:58.604Z,8.10
2019-03-01T21:13:33.803Z,8.00
2019-03-01T21:16:04.567Z,8.00
2019-03-01T21:18:34.186Z,8.00
2019-03-01T21:21:02.274Z,8.00
2019-03-01T21:23:30.532Z,8.00
2019-03-01T21:25:58.494Z,8.00
2019-03-01T21:28:26.416Z,8.00
2019-03-01T21:30:55.660Z,8.00
2019-03-01T21:33:27.345Z,8.00
2019-03-01T21:35:53.674Z,8.00
2019-03-01T21:38:21.526Z,8.00
2019-03-01T21:40:49.200Z,7.90
2019-03-01T21:43:18.371Z,8.00
2019-03-01T21:45:46.663Z,8.00
2019-03-01T21:48:18.643Z,8.00
2019-03-01T21:50:46.618Z,8.00
2019-03-01T21:53:14.424Z,8.00
2019-03-01T21:55:42.153Z,8.00
2019-03-01T21:58:10.110Z,8.00
2019-03-01T22:00:37.825Z,8.00
2019-03-01T22:03:05.601Z,7.90
2019-03-01T22:05:34.302Z,7.90
2019-03-01T22:08:05.226Z,7.90
2019-03-01T22:10:35.654Z,7.90
2019-03-01T22:13:02.579Z,7.90
2019-03-01T22:15:30.344Z,7.90
2019-03-01T22:17:59.350Z,7.90
2019-03-01T22:20:27.048Z,7.90
2019-03-01T22:22:54.734Z,8.00
2019-03-01T22:25:22.445Z,7.90
2019-03-01T22:27:53.914Z,7.90
2019-03-01T22:30:24.842Z,7.90
2019-03-01T22:32:52.634Z,7.90
2019-03-01T22:35:20.397Z,7.80
2019-03-01T22:37:48.433Z,7.80
2019-03-01T22:40:16.459Z,7.80
2019-03-01T22:42:45.706Z,7.80
2019-03-01T22:45:14.597Z,7.80
2019-03-01T22:47:42.624Z,7.80
2019-03-01T22:50:11.699Z,7.80
2019-03-01T22:52:39.519Z,7.70
2019-03-01T22:55:08.773Z,7.80
2019-03-01T22:57:36.609Z,7.80
2019-03-01T23:00:07.537Z,7.80
2019-03-01T23:02:40.294Z,7.80
2019-03-01T23:05:08.236Z,7.70
2019-03-01T23:07:36.176Z,7.80
2019-03-01T23:10:04.447Z,7.80
2019-03-01T23:12:33.897Z,7.80
2019-03-01T23:15:02.803Z,7.70
2019-03-01T23:17:32.694Z,7.60
2019-03-01T23:20:00.632Z,7.60
2019-03-01T23:22:28.414Z,7.60
2019-03-01T23:24:55.986Z,7.60
2019-03-01T23:27:23.761Z,7.60
2019-03-01T23:29:54.241Z,7.60
2019-03-01T23:32:21.328Z,7.60
2019-03-01T23:34:49.079Z,7.60
2019-03-01T23:37:16.923Z,7.60
2019-03-01T23:39:44.542Z,7.60
2019-03-01T23:42:12.542Z,7.60
2019-03-01T23:44:41.524Z,7.60
2019-03-01T23:47:10.672Z,7.60
2019-03-01T23:49:38.400Z,7.60
2019-03-01T23:52:06.274Z,7.70
2019-03-01T23:54:34.618Z,7.70
2019-03-01T23:57:05.701Z,7.80
2019-03-01T23:59:32.002Z,7.80
